Portada
METAR-TAF:

METAR-TAF

Aeropuertos :

Asaluyeh, Irán

latitud: 27-22-46N, longitud: 52-44-15E, altitud: 8 m

Observación

El informe se hizo hace 21 minutos, a las 06:00 UTC
Viento 14 kt del oeste-noroeste
Temperatura 20°C
Humedad 49%
Presión 1017 hPa
Visibilidad: 3000 m
Polvo extendido

METAR: OIBP 270600Z 29014KT 3000 DU NSC 20/09 Q1017 A3004

Hora: 09:51 (06:21 UTC)


TAF: falta

Observaciones y pronósticos meteorológicos de más de 4000 aeropuertos (mensajes METAR y TAF).

Los puntos amarillos y rojos representan las estaciones disponibles.

Ponga el ratón en el punto deseado para ver el nombre de la estación.

Haga clic para ver las observaciones y los pronósticos meteorológicos.

Para cambiar el mapa : haga clic en los botones verdes con una cruz de color negro para hacer un zoom, en el botón verde con un guión para alejar o en las flechas verdes para mapas adyacentes.


METAR-TAF: